createdAt,value
2019-03-12T00:00:04.504Z,102235.76
2019-03-12T00:02:31.751Z,102237.69
2019-03-12T00:04:59.034Z,102230.20
2019-03-12T00:07:26.330Z,102226.87
2019-03-12T00:09:53.961Z,102220.20
2019-03-12T00:12:21.359Z,102227.03
2019-03-12T00:14:48.601Z,102222.69
2019-03-12T00:17:15.895Z,102234.42
2019-03-12T00:19:43.139Z,102231.27
2019-03-12T00:22:10.390Z,102225.52
2019-03-12T00:24:37.720Z,102232.58
2019-03-12T00:27:04.950Z,102228.94
2019-03-12T00:29:32.207Z,102233.89
2019-03-12T00:31:59.493Z,102223.32
2019-03-12T00:34:26.738Z,102217.11
2019-03-12T00:36:54.023Z,102215.63
2019-03-12T00:39:21.279Z,102215.40
2019-03-12T00:41:48.517Z,102208.69
2019-03-12T00:44:15.808Z,102213.05
2019-03-12T00:46:43.104Z,102207.10
2019-03-12T00:49:10.386Z,102209.71
2019-03-12T00:51:37.665Z,102208.73
2019-03-12T00:54:04.990Z,102196.95
2019-03-12T00:56:32.321Z,102195.25
2019-03-12T00:58:59.565Z,102187.06
2019-03-12T01:01:26.862Z,102179.47
2019-03-12T01:03:54.123Z,102178.61
2019-03-12T01:06:21.354Z,102183.38
2019-03-12T01:08:48.652Z,102169.97
2019-03-12T01:11:15.932Z,102169.30
2019-03-12T01:13:43.229Z,102157.47
2019-03-12T01:16:10.461Z,102161.11
2019-03-12T01:18:37.697Z,102162.05
2019-03-12T01:21:04.972Z,102162.01
2019-03-12T01:23:32.242Z,102151.62
2019-03-12T01:25:59.540Z,102157.64
2019-03-12T01:28:26.801Z,102152.33
2019-03-12T01:30:54.056Z,102144.27
2019-03-12T01:33:21.353Z,102136.27
2019-03-12T01:35:48.604Z,102128.97
2019-03-12T01:38:15.921Z,102125.90
2019-03-12T01:40:43.232Z,102118.07
2019-03-12T01:43:10.472Z,102115.97
2019-03-12T01:45:37.726Z,102114.19
2019-03-12T01:48:05.036Z,102106.02
2019-03-12T01:50:32.298Z,102101.52
2019-03-12T01:52:59.541Z,102106.62
2019-03-12T01:55:26.837Z,102096.36
2019-03-12T01:57:54.089Z,102096.16
2019-03-12T02:00:21.333Z,102080.55
2019-03-12T02:02:48.598Z,102083.30
2019-03-12T02:05:15.853Z,102075.11
2019-03-12T02:07:43.239Z,102075.42
2019-03-12T02:10:10.818Z,102070.61
2019-03-12T02:12:38.144Z,102066.57
2019-03-12T02:15:06.628Z,102067.65
2019-03-12T02:17:33.894Z,102065.54
2019-03-12T02:20:01.255Z,102064.91
2019-03-12T02:22:28.546Z,102064.46
2019-03-12T02:24:55.822Z,102059.12
2019-03-12T02:27:23.087Z,102052.20
2019-03-12T02:29:50.347Z,102047.38
2019-03-12T02:32:17.614Z,102041.72
2019-03-12T02:34:44.873Z,102041.67
2019-03-12T02:37:12.322Z,102031.97
2019-03-12T02:39:39.604Z,102030.77
2019-03-12T02:42:06.887Z,102027.35
2019-03-12T02:44:34.209Z,102023.34
2019-03-12T02:47:01.465Z,102014.27
2019-03-12T02:49:28.767Z,102013.05
2019-03-12T02:51:56.022Z,102013.33
2019-03-12T02:54:23.311Z,102008.64
2019-03-12T02:56:50.584Z,102007.61
2019-03-12T02:59:17.874Z,101997.51
2019-03-12T03:01:45.132Z,101995.92
2019-03-12T03:04:12.395Z,101983.42
2019-03-12T03:06:57.145Z,101979.84
2019-03-12T03:09:24.437Z,101982.89
2019-03-12T03:11:51.757Z,101976.03
2019-03-12T03:14:47.822Z,101972.52
2019-03-12T03:17:15.844Z,101970.59
2019-03-12T03:19:43.083Z,101965.28
2019-03-12T03:22:10.358Z,101961.12
2019-03-12T03:24:37.592Z,101960.50
2019-03-12T03:27:04.820Z,101955.36
2019-03-12T03:29:32.083Z,101951.27
2019-03-12T03:31:59.327Z,101940.75
2019-03-12T03:34:28.156Z,101948.72
2019-03-12T03:36:55.833Z,101936.71
2019-03-12T03:39:23.401Z,101936.67
2019-03-12T03:41:50.667Z,101928.09
2019-03-12T03:44:17.977Z,101918.00
2019-03-12T03:46:45.308Z,101916.09
2019-03-12T03:49:12.595Z,101905.05
2019-03-12T03:51:39.843Z,101899.20
2019-03-12T03:54:07.094Z,101890.94
2019-03-12T03:56:34.390Z,101890.60
2019-03-12T03:59:01.688Z,101885.39
2019-03-12T04:01:29.268Z,101878.47
2019-03-12T04:03:56.555Z,101882.44
2019-03-12T04:06:23.817Z,101874.68
2019-03-12T04:08:51.152Z,101861.81
2019-03-12T04:11:18.405Z,101859.17
2019-03-12T04:13:45.647Z,101846.52
2019-03-12T04:16:12.958Z,101838.08
2019-03-12T04:18:40.211Z,101834.50
2019-03-12T04:21:07.500Z,101825.38
2019-03-12T04:23:34.766Z,101826.97
2019-03-12T04:26:02.106Z,101817.71
2019-03-12T04:28:29.402Z,101815.16
2019-03-12T04:30:56.657Z,101808.12
2019-03-12T04:34:07.923Z,101797.48
2019-03-12T04:36:35.300Z,101794.59
2019-03-12T04:39:04.351Z,101786.84
2019-03-12T04:41:31.633Z,101778.48
2019-03-12T04:43:58.895Z,101785.25
2019-03-12T04:46:26.206Z,101775.23
2019-03-12T04:48:53.522Z,101769.06
2019-03-12T04:51:20.792Z,101768.82
2019-03-12T04:53:48.071Z,101765.72
2019-03-12T04:56:15.392Z,101757.00
2019-03-12T04:58:42.742Z,101758.92
2019-03-12T05:01:09.985Z,101734.86
2019-03-12T05:03:37.309Z,101736.41
2019-03-12T05:06:04.575Z,101725.22
2019-03-12T05:08:31.838Z,101713.91
2019-03-12T05:10:59.160Z,101697.31
2019-03-12T05:13:26.449Z,101692.71
2019-03-12T05:15:53.714Z,101686.77
2019-03-12T05:18:21.299Z,101686.03
2019-03-12T05:20:49.425Z,101679.44
2019-03-12T05:23:16.777Z,101675.77
2019-03-12T05:25:44.053Z,101674.18
2019-03-12T05:28:11.307Z,101664.13
2019-03-12T05:30:38.618Z,101664.04
2019-03-12T05:33:05.874Z,101657.80
2019-03-12T05:35:33.160Z,101657.92
2019-03-12T05:38:00.414Z,101649.58
2019-03-12T05:40:27.674Z,101643.96
2019-03-12T05:42:54.950Z,101642.05
2019-03-12T05:45:22.286Z,101632.23
2019-03-12T05:47:49.563Z,101630.69
2019-03-12T05:50:16.808Z,101630.72
2019-03-12T05:52:44.056Z,101621.44
2019-03-12T05:55:13.228Z,101620.22
2019-03-12T05:57:40.649Z,101618.09
2019-03-12T06:00:09.449Z,101619.32
2019-03-12T06:02:36.749Z,101617.44
2019-03-12T06:05:04.486Z,101607.30
2019-03-12T06:07:31.814Z,101607.02
2019-03-12T06:09:59.080Z,101612.14
2019-03-12T06:12:26.322Z,101602.11
2019-03-12T06:14:53.619Z,101599.80
2019-03-12T06:17:20.876Z,101595.80
2019-03-12T06:19:48.181Z,101587.58
2019-03-12T06:22:15.470Z,101582.07
2019-03-12T06:24:42.705Z,101580.85
2019-03-12T06:27:10.014Z,101589.28
2019-03-12T06:29:37.272Z,101577.38
2019-03-12T06:32:39.264Z,101576.06
2019-03-12T06:35:13.795Z,101587.48
2019-03-12T06:37:49.099Z,101587.59
2019-03-12T06:40:44.768Z,101579.88
2019-03-12T06:43:17.659Z,101573.08
2019-03-12T06:46:03.929Z,101576.90
2019-03-12T06:48:50.626Z,101568.98
2019-03-12T06:51:43.039Z,101567.77
2019-03-12T06:54:44.996Z,101560.95
2019-03-12T06:57:32.603Z,101559.92
2019-03-12T07:00:11.397Z,101558.83
2019-03-12T07:03:13.352Z,101552.42
2019-03-12T07:06:12.489Z,101540.16
2019-03-12T07:09:05.412Z,101542.25
2019-03-12T07:11:39.442Z,101532.64
2019-03-12T07:14:22.934Z,101536.14
2019-03-12T07:16:57.205Z,101519.36
2019-03-12T07:19:55.351Z,101512.95
2019-03-12T07:22:48.334Z,101516.59
2019-03-12T07:25:37.773Z,101502.92
2019-03-12T07:28:27.431Z,101483.75
2019-03-12T07:31:06.662Z,101486.66
2019-03-12T07:33:52.116Z,101480.33
2019-03-12T07:36:38.895Z,101483.86
2019-03-12T07:39:44.192Z,101461.98
2019-03-12T07:42:29.687Z,101458.84
2019-03-12T07:45:15.485Z,101444.13
2019-03-12T07:48:20.361Z,101440.20
2019-03-12T07:51:10.222Z,101429.66
2019-03-12T07:53:59.779Z,101414.48
2019-03-12T07:56:41.056Z,101405.64
2019-03-12T07:59:35.085Z,101382.56
2019-03-12T08:02:24.911Z,101357.25
2019-03-12T08:05:20.745Z,101346.38
2019-03-12T08:08:05.841Z,101335.70
2019-03-12T08:10:55.477Z,101310.00
2019-03-12T08:13:40.878Z,101306.16
2019-03-12T08:16:33.376Z,101281.94
2019-03-12T08:19:18.277Z,101275.41
2019-03-12T08:21:57.650Z,101273.52
2019-03-12T08:24:35.660Z,101258.02
2019-03-12T08:27:21.356Z,101237.44
2019-03-12T08:30:06.726Z,101230.60
2019-03-12T08:32:56.161Z,101229.98
2019-03-12T08:35:35.141Z,101233.63
2019-03-12T08:38:21.949Z,101236.14
2019-03-12T08:41:11.627Z,101212.84
2019-03-12T08:43:56.415Z,101205.06
2019-03-12T08:46:37.648Z,101196.66
2019-03-12T08:49:14.290Z,101176.75
2019-03-12T08:52:03.719Z,101168.20
2019-03-12T08:54:53.466Z,101150.27
2019-03-12T08:57:48.076Z,101151.80
2019-03-12T09:00:28.613Z,101133.05
2019-03-12T09:03:07.605Z,101135.55
2019-03-12T09:06:00.238Z,101113.71
2019-03-12T09:08:46.215Z,101122.02
2019-03-12T09:11:33.056Z,101110.05
2019-03-12T09:14:18.640Z,101098.45
2019-03-12T09:17:00.162Z,101077.78
2019-03-12T09:19:49.804Z,101082.20
2019-03-12T09:22:35.077Z,101075.99
2019-03-12T09:25:22.767Z,101074.27
2019-03-12T09:28:13.854Z,101063.25
2019-03-12T09:31:03.190Z,101057.80
2019-03-12T09:33:45.386Z,101048.66
2019-03-12T09:36:21.388Z,101041.54
2019-03-12T09:38:59.359Z,101030.35
2019-03-12T09:41:37.024Z,101022.02
2019-03-12T09:44:26.428Z,101008.12
2019-03-12T09:47:02.490Z,101001.52
2019-03-12T09:49:43.971Z,100990.88
2019-03-12T09:52:25.888Z,100975.59
2019-03-12T09:55:04.871Z,100981.23
2019-03-12T09:57:45.597Z,100964.48
2019-03-12T10:00:24.886Z,100964.48
2019-03-12T10:03:09.402Z,100952.33
2019-03-12T10:05:59.115Z,100949.77
2019-03-12T10:08:50.622Z,100948.84
2019-03-12T10:11:31.752Z,100940.36
2019-03-12T10:14:17.126Z,100937.38
2019-03-12T10:17:00.554Z,100933.87
2019-03-12T10:19:53.326Z,100922.02
2019-03-12T10:22:46.091Z,100908.61
2019-03-12T10:25:35.750Z,100892.50
2019-03-12T10:28:21.440Z,100893.56
2019-03-12T10:31:10.981Z,100885.30
2019-03-12T10:34:06.760Z,100870.78
2019-03-12T10:36:47.982Z,100863.55
2019-03-12T10:40:19.988Z,100852.42
2019-03-12T10:43:15.293Z,100857.13
2019-03-12T10:46:04.738Z,100840.20
2019-03-12T11:16:26.745Z,100769.55
2019-03-12T11:18:55.140Z,100765.32
2019-03-12T11:21:23.942Z,100768.61
2019-03-12T11:23:54.086Z,100743.02
2019-03-12T11:26:21.502Z,100759.41
2019-03-12T11:28:48.865Z,100757.98
2019-03-12T11:31:16.115Z,100752.27
2019-03-12T11:33:49.263Z,100744.98
2019-03-12T11:36:16.534Z,100739.28
2019-03-12T11:38:44.184Z,100743.44
2019-03-12T11:41:11.495Z,100730.64
2019-03-12T11:43:38.783Z,100734.77
2019-03-12T11:46:06.098Z,100726.42
2019-03-12T11:48:33.357Z,100735.83
2019-03-12T11:51:00.741Z,100712.05
2019-03-12T11:53:28.218Z,100717.12
2019-03-12T11:55:55.495Z,100714.57
2019-03-12T11:58:22.779Z,100717.06
2019-03-12T12:00:55.893Z,100704.38
2019-03-12T12:03:23.275Z,100698.16
2019-03-12T12:05:50.515Z,100696.19
2019-03-12T12:08:17.852Z,100692.45
2019-03-12T12:10:45.079Z,100683.03
2019-03-12T12:13:12.352Z,100692.78
2019-03-12T12:15:39.665Z,100679.62
2019-03-12T12:18:07.121Z,100670.84
2019-03-12T12:20:34.374Z,100647.83
2019-03-12T12:23:02.059Z,100631.98
2019-03-12T12:25:29.344Z,100617.01
2019-03-12T12:27:56.596Z,100621.19
2019-03-12T12:30:24.129Z,100601.92
2019-03-12T12:32:51.577Z,100614.27
2019-03-12T12:35:18.978Z,100599.08
2019-03-12T12:37:46.263Z,100590.25
2019-03-12T12:40:14.302Z,100585.59
2019-03-12T12:42:41.635Z,100572.83
2019-03-12T12:45:11.764Z,100575.98
2019-03-12T12:47:39.051Z,100560.49
2019-03-12T12:50:06.633Z,100562.66
2019-03-12T12:52:33.916Z,100546.42
2019-03-12T12:55:01.162Z,100534.73
2019-03-12T12:57:28.510Z,100533.09
2019-03-12T12:59:55.825Z,100514.56
2019-03-12T13:02:23.115Z,100520.39
2019-03-12T13:04:50.465Z,100524.00
2019-03-12T13:07:17.702Z,100510.71
2019-03-12T13:09:44.971Z,100511.11
2019-03-12T13:12:12.252Z,100503.70
2019-03-12T13:14:41.766Z,100506.66
2019-03-12T13:17:08.832Z,100489.87
2019-03-12T13:19:36.227Z,100485.50
2019-03-12T13:22:03.612Z,100484.09
2019-03-12T13:24:30.964Z,100478.97
2019-03-12T13:26:58.200Z,100469.08
2019-03-12T13:29:25.540Z,100457.58
2019-03-12T13:31:52.887Z,100446.16
2019-03-12T13:34:20.159Z,100458.31
2019-03-12T13:36:47.510Z,100435.03
2019-03-12T13:39:14.968Z,100435.03
2019-03-12T13:41:42.215Z,100437.66
2019-03-12T13:44:09.553Z,100436.36
2019-03-12T13:46:36.894Z,100426.23
2019-03-12T13:49:04.294Z,100429.13
2019-03-12T13:51:31.728Z,100427.58
2019-03-12T13:53:59.053Z,100410.77
2019-03-12T13:56:26.348Z,100400.69
2019-03-12T13:58:53.608Z,100405.12
2019-03-12T14:01:20.881Z,100392.09
2019-03-12T14:03:48.167Z,100379.06
2019-03-12T14:06:15.470Z,100370.25
2019-03-12T14:08:42.749Z,100352.47
2019-03-12T14:11:10.049Z,100344.53
2019-03-12T14:13:37.352Z,100323.38
2019-03-12T14:16:04.788Z,100317.30
2019-03-12T14:18:32.147Z,100312.11
2019-03-12T14:21:02.993Z,100295.14
2019-03-12T14:23:33.528Z,100284.36
2019-03-12T14:26:00.917Z,100292.52
2019-03-12T14:28:28.363Z,100260.61
2019-03-12T14:30:55.885Z,100266.20
2019-03-12T14:33:23.189Z,100252.59
2019-03-12T14:35:52.259Z,100254.77
2019-03-12T14:38:19.972Z,100253.08
2019-03-12T14:40:47.290Z,100244.84
2019-03-12T14:43:14.688Z,100246.41
2019-03-12T14:45:48.758Z,100236.45
2019-03-12T14:48:41.438Z,100235.17
2019-03-12T14:51:21.651Z,100228.30
2019-03-12T14:53:49.966Z,100220.00
2019-03-12T14:56:17.405Z,100199.16
2019-03-12T14:58:44.840Z,100195.89
2019-03-12T15:01:12.189Z,100173.37
2019-03-12T15:03:39.470Z,100177.58
2019-03-12T15:06:06.950Z,100169.02
2019-03-12T15:08:34.214Z,100152.17
2019-03-12T15:11:01.627Z,100149.91
2019-03-12T15:13:28.966Z,100133.90
2019-03-12T15:15:56.336Z,100128.77
2019-03-12T15:18:23.640Z,100116.69
2019-03-12T15:20:50.964Z,100115.52
2019-03-12T15:23:18.223Z,100089.52
2019-03-12T15:25:45.478Z,100093.94
2019-03-12T15:28:12.821Z,100067.80
2019-03-12T15:30:40.214Z,100067.80
2019-03-12T15:33:07.464Z,100069.61
2019-03-12T15:35:34.884Z,100050.19
2019-03-12T15:38:02.228Z,100040.21
2019-03-12T15:40:29.537Z,100045.73
2019-03-12T15:42:57.210Z,100031.88
2019-03-12T15:45:24.512Z,100019.49
2019-03-12T15:47:51.822Z,100016.27
2019-03-12T15:50:19.318Z,100004.11
2019-03-12T15:52:46.582Z,100004.80
2019-03-12T15:55:13.827Z,100010.70
2019-03-12T15:57:41.127Z,100015.14
2019-03-12T16:00:08.833Z,99988.93
2019-03-12T16:02:36.241Z,99986.48
2019-03-12T16:05:04.151Z,99984.72
2019-03-12T16:07:31.466Z,99975.81
2019-03-12T16:09:59.443Z,99964.25
2019-03-12T16:12:26.762Z,99946.86
2019-03-12T16:14:54.050Z,99946.86
2019-03-12T16:17:21.524Z,99951.11
2019-03-12T16:19:48.782Z,99956.78
2019-03-12T16:22:16.059Z,99906.42
2019-03-12T16:24:43.342Z,99906.42
2019-03-12T16:27:10.603Z,99897.34
2019-03-12T16:29:37.871Z,99904.81
2019-03-12T16:32:05.186Z,99885.86
2019-03-12T16:34:32.442Z,99884.91
2019-03-12T16:36:59.754Z,99868.62
2019-03-12T16:39:27.007Z,99868.62
2019-03-12T16:41:54.245Z,99846.12
2019-03-12T16:44:21.553Z,99839.14
2019-03-12T16:46:48.930Z,99832.19
2019-03-12T16:49:16.204Z,99831.64
2019-03-12T16:51:43.995Z,99818.92
2019-03-12T16:54:13.379Z,99813.30
2019-03-12T16:56:45.469Z,99803.25
2019-03-12T16:59:09.860Z,99801.08
2019-03-12T17:01:37.326Z,99789.84
2019-03-12T17:04:04.620Z,99785.80
2019-03-12T17:06:31.884Z,99791.97
2019-03-12T17:08:59.555Z,99769.32
2019-03-12T17:11:26.834Z,99763.98
2019-03-12T17:13:54.117Z,99776.75
2019-03-12T17:16:23.842Z,99777.50
2019-03-12T17:19:02.326Z,99764.19
2019-03-12T17:21:32.628Z,99766.94
2019-03-12T17:23:58.912Z,99749.57
2019-03-12T17:26:26.185Z,99740.27
2019-03-12T17:28:54.477Z,99744.33
2019-03-12T17:31:21.777Z,99738.27
2019-03-12T17:33:49.107Z,99728.72
2019-03-12T17:36:16.409Z,99719.65
2019-03-12T17:38:46.807Z,99709.90
2019-03-12T17:41:13.845Z,99699.35
2019-03-12T17:43:41.101Z,99683.19
2019-03-12T17:46:12.155Z,99682.39
2019-03-12T17:48:39.503Z,99672.11
2019-03-12T17:51:06.912Z,99664.38
2019-03-12T17:53:34.196Z,99660.72
2019-03-12T17:56:01.502Z,99665.68
2019-03-12T17:58:28.955Z,99660.01
2019-03-12T18:00:56.243Z,99651.70
2019-03-12T18:03:23.478Z,99653.78
2019-03-12T18:05:50.780Z,99652.83
2019-03-12T18:08:18.074Z,99653.33
2019-03-12T18:10:45.961Z,99658.81
2019-03-12T18:13:13.316Z,99658.62
2019-03-12T18:15:40.747Z,99659.52
2019-03-12T18:18:08.051Z,99661.00
2019-03-12T18:20:35.884Z,99659.31
2019-03-12T18:23:03.143Z,99649.91
2019-03-12T18:25:30.535Z,99630.66
2019-03-12T18:27:57.957Z,99634.87
2019-03-12T18:30:25.207Z,99629.39
2019-03-12T18:32:52.680Z,99626.79
2019-03-12T18:35:20.001Z,99631.83
2019-03-12T18:37:47.253Z,99624.42
2019-03-12T18:40:16.233Z,99623.97
2019-03-12T18:42:43.503Z,99614.45
2019-03-12T18:45:13.423Z,99613.95
2019-03-12T18:47:40.983Z,99601.98
2019-03-12T18:50:09.578Z,99592.81
2019-03-12T18:52:36.832Z,99585.45
2019-03-12T18:55:04.721Z,99570.02
2019-03-12T18:57:32.037Z,99574.38
2019-03-12T18:59:59.709Z,99563.95
2019-03-12T19:02:26.963Z,99566.13
2019-03-12T19:04:54.887Z,99555.31
2019-03-12T19:07:22.144Z,99552.88
2019-03-12T19:09:49.475Z,99548.70
2019-03-12T19:12:16.750Z,99540.23
2019-03-12T19:14:44.005Z,99531.14
2019-03-12T19:17:14.125Z,99522.59
2019-03-12T19:19:41.495Z,99527.77
2019-03-12T19:22:09.082Z,99518.67
2019-03-12T19:24:36.401Z,99517.73
2019-03-12T19:27:04.222Z,99513.32
2019-03-12T19:29:31.556Z,99508.20
2019-03-12T19:32:11.877Z,99512.08
2019-03-12T19:34:39.272Z,99514.16
2019-03-12T19:37:06.653Z,99507.77
2019-03-12T19:39:34.778Z,99491.94
2019-03-12T19:42:02.292Z,99503.31
2019-03-12T19:44:32.462Z,99501.45
2019-03-12T19:46:59.865Z,99493.27
2019-03-12T19:49:27.120Z,99477.16
2019-03-12T19:51:54.381Z,99486.99
2019-03-12T19:54:21.756Z,99488.39
2019-03-12T19:56:49.026Z,99484.47
2019-03-12T19:59:16.282Z,99482.11
2019-03-12T20:01:44.541Z,99464.04
2019-03-12T20:04:12.000Z,99464.46
2019-03-12T20:06:39.563Z,99497.97
2019-03-12T20:09:13.538Z,99573.05
2019-03-12T20:12:08.612Z,99587.89
2019-03-12T20:15:13.340Z,99594.73
2019-03-12T20:18:25.739Z,99606.76
2019-03-12T20:21:25.995Z,99617.35
2019-03-12T20:24:40.264Z,99610.19
2019-03-12T20:28:10.359Z,99614.86
2019-03-12T20:31:14.035Z,99619.23
2019-03-12T20:34:07.344Z,99613.19
2019-03-12T20:37:34.363Z,99608.20
2019-03-12T20:40:42.195Z,99621.45
2019-03-12T20:43:45.721Z,99632.27
2019-03-12T20:47:01.761Z,99641.99
2019-03-12T20:50:29.111Z,99646.08
2019-03-12T20:53:30.416Z,99638.70
2019-03-12T20:56:34.522Z,99654.32
2019-03-12T20:59:48.710Z,99671.06
2019-03-12T21:03:09.051Z,99672.45
2019-03-12T21:06:24.246Z,99700.20
2019-03-12T21:09:31.997Z,99700.20
2019-03-12T21:12:36.086Z,99682.72
2019-03-12T21:15:34.330Z,99680.64
2019-03-12T21:18:44.447Z,99692.90
2019-03-12T21:22:04.731Z,99707.38
2019-03-12T21:25:12.867Z,99722.89
2019-03-12T21:28:32.404Z,99724.99
2019-03-12T21:30:59.675Z,99726.16
2019-03-12T21:33:26.916Z,99736.55
2019-03-12T21:35:54.327Z,99741.11
2019-03-12T21:38:21.611Z,99732.41
2019-03-12T21:40:48.878Z,99727.80
2019-03-12T21:43:16.189Z,99743.78
2019-03-12T21:45:43.479Z,99748.65
2019-03-12T21:48:10.834Z,99762.06
2019-03-12T21:50:38.127Z,99759.27
2019-03-12T21:53:05.564Z,99761.56
2019-03-12T21:55:32.841Z,99766.22
2019-03-12T21:58:00.084Z,99769.62
2019-03-12T22:00:27.428Z,99775.73
2019-03-12T22:02:54.666Z,99773.86
2019-03-12T22:05:21.928Z,99772.31
2019-03-12T22:07:49.237Z,99767.63
2019-03-12T22:10:16.556Z,99777.75
2019-03-12T22:12:43.875Z,99774.41
2019-03-12T22:15:11.177Z,99783.89
2019-03-12T22:17:38.517Z,99787.77
2019-03-12T22:20:07.241Z,99783.49
2019-03-12T22:22:39.135Z,99778.58
2019-03-12T22:25:08.423Z,99794.31
2019-03-12T22:27:35.722Z,99789.39
2019-03-12T22:30:03.213Z,99793.13
2019-03-12T22:32:30.495Z,99803.25
2019-03-12T22:34:57.755Z,99790.84
2019-03-12T22:37:25.143Z,99794.77
2019-03-12T22:39:52.429Z,99804.16
2019-03-12T22:42:19.710Z,99802.45
2019-03-12T22:44:47.031Z,99799.05
2019-03-12T22:47:14.298Z,99802.20
2019-03-12T22:49:41.610Z,99806.06
2019-03-12T22:52:08.849Z,99806.01
2019-03-12T22:54:37.354Z,99814.03
2019-03-12T22:57:04.643Z,99810.47
2019-03-12T22:59:31.960Z,99811.27
2019-03-12T23:01:59.256Z,99815.80
2019-03-12T23:04:26.566Z,99808.88
2019-03-12T23:06:53.910Z,99811.97
2019-03-12T23:09:21.166Z,99807.31
2019-03-12T23:11:48.475Z,99815.43
2019-03-12T23:14:15.784Z,99817.63
2019-03-12T23:16:43.145Z,99816.06
2019-03-12T23:19:10.436Z,99816.73
2019-03-12T23:21:37.756Z,99813.13
2019-03-12T23:24:05.135Z,99816.53
2019-03-12T23:26:32.460Z,99812.19
2019-03-12T23:28:59.798Z,99813.20
2019-03-12T23:31:27.049Z,99818.67
2019-03-12T23:33:54.350Z,99818.68
2019-03-12T23:36:21.627Z,99814.89
2019-03-12T23:38:48.863Z,99815.94
2019-03-12T23:41:16.206Z,99805.45
2019-03-12T23:43:43.486Z,99809.90
2019-03-12T23:46:10.762Z,99802.23
2019-03-12T23:48:38.095Z,99810.09
2019-03-12T23:51:05.494Z,99809.21
2019-03-12T23:53:33.190Z,99804.58
2019-03-12T23:56:00.452Z,99801.84
2019-03-12T23:58:30.811Z,99795.83
